Time,TemperatureF,DewpointF,PressureIn,WindDirection,WindDirectionDegrees,WindSpeedMPH,WindSpeedGustMPH,Humidity,HourlyPrecipIn,Conditions,Clouds,dailyrainin,SoftwareType,DateUTC
2013-02-19 00:01:00,48.2,10.0,29.79,North,350,4.0,8.7,21,0.00,,,-99.99,FreeWX 2.04,2013-02-19 05:01:00,
2013-02-19 00:12:00,48.2,10.0,29.79,NNW,348,5.0,11.6,21,0.00,,,-99.99,FreeWX 2.04,2013-02-19 05:12:00,
2013-02-19 00:22:00,48.4,10.2,29.82,North,355,3.0,6.9,21,0.00,,,-99.99,FreeWX 2.04,2013-02-19 05:22:00,
2013-02-19 00:32:00,48.9,10.8,29.82,North,353,4.0,10.5,21,0.00,,,-99.99,FreeWX 2.04,2013-02-19 05:32:00,
2013-02-19 00:42:00,48.9,10.8,29.82,North,0,4.0,10.5,21,0.00,,,-99.99,FreeWX 2.04,2013-02-19 05:42:00,
2013-02-19 00:52:00,48.4,10.2,29.82,North,4,4.0,7.8,21,0.00,,,-99.99,FreeWX 2.04,2013-02-19 05:52:00,
2013-02-19 01:02:00,47.7,12.7,29.82,North,5,3.0,10.5,24,0.00,,,-99.99,FreeWX 2.04,2013-02-19 06:02:00,
2013-02-19 01:12:00,46.8,11.8,29.82,North,351,2.0,4.5,24,0.00,,,-99.99,FreeWX 2.04,2013-02-19 06:12:00,
2013-02-19 01:22:00,46.2,14.2,29.82,North,354,2.0,5.8,27,0.00,,,-99.99,FreeWX 2.04,2013-02-19 06:22:00,
2013-02-19 01:32:00,45.5,15.8,29.82,North,-999,0.0,3.6,30,0.00,,,-99.99,FreeWX 2.04,2013-02-19 06:32:00,
2013-02-19 01:42:00,44.8,16.0,29.82,North,-999,0.0,0.0,31,0.00,,,-99.99,FreeWX 2.04,2013-02-19 06:42:00,
2013-02-19 01:52:00,45.1,19.2,29.82,NE,40,5.0,22.4,35,0.00,,,-99.99,FreeWX 2.04,2013-02-19 06:52:00,
2013-02-19 02:02:00,45.3,20.7,29.82,NNE,12,6.0,15.4,37,0.04,,,-99.99,FreeWX 2.04,2013-02-19 07:02:00,
2013-02-19 02:12:00,45.1,21.0,29.82,North,1,4.0,9.6,38,0.04,,,-99.99,FreeWX 2.04,2013-02-19 07:12:00,
2013-02-19 02:22:00,45.0,21.6,29.82,NNW,346,3.0,6.7,39,0.04,,,-99.99,FreeWX 2.04,2013-02-19 07:22:00,
2013-02-19 02:32:00,45.0,21.6,29.82,North,354,5.0,15.2,39,0.04,,,-99.99,FreeWX 2.04,2013-02-19 07:32:00,
2013-02-19 02:42:00,45.0,22.1,29.82,NNW,348,5.0,13.9,40,0.04,,,-99.99,FreeWX 2.04,2013-02-19 07:42:00,
2013-02-19 02:57:00,44.8,21.9,29.79,NNW,340,6.0,17.7,40,0.00,,,-99.99,FreeWX 2.04,2013-02-19 07:57:00,
2013-02-19 03:07:00,44.6,23.0,29.79,North,349,5.0,13.9,42,0.00,,,-99.99,FreeWX 2.04,2013-02-19 08:07:00,
2013-02-19 03:17:00,44.4,22.8,29.79,North,349,6.0,13.9,42,0.00,,,-99.99,FreeWX 2.04,2013-02-19 08:17:00,
2013-02-19 03:27:00,44.2,23.2,29.79,NNW,344,6.0,15.4,43,0.00,,,-99.99,FreeWX 2.04,2013-02-19 08:27:00,
2013-02-19 03:37:00,43.9,23.4,29.79,NNW,343,6.0,15.2,44,0.00,,,-99.99,FreeWX 2.04,2013-02-19 08:37:00,
2013-02-19 03:47:00,43.7,23.2,29.76,NNW,347,6.0,14.3,44,0.00,,,-99.99,FreeWX 2.04,2013-02-19 08:47:00,
2013-02-19 04:02:00,43.7,22.1,29.76,North,358,5.0,13.9,42,0.00,,,-99.99,FreeWX 2.04,2013-02-19 09:02:00,
2013-02-19 04:12:00,43.9,22.3,29.76,North,359,6.0,22.8,42,0.00,,,-99.99,FreeWX 2.04,2013-02-19 09:12:00,
2013-02-19 04:22:00,44.1,21.9,29.76,NNW,348,7.0,13.4,41,0.00,,,-99.99,FreeWX 2.04,2013-02-19 09:22:00,
2013-02-19 04:32:00,44.1,21.9,29.76,NNW,345,5.0,14.8,41,0.00,,,-99.99,FreeWX 2.04,2013-02-19 09:32:00,
2013-02-19 04:42:00,44.1,21.9,29.76,North,355,5.0,12.1,41,0.00,,,-99.99,FreeWX 2.04,2013-02-19 09:42:00,
2013-02-19 04:52:00,44.1,21.9,29.76,North,3,4.0,13.0,41,0.00,,,-99.99,FreeWX 2.04,2013-02-19 09:52:00,
2013-02-19 05:02:00,43.9,21.7,29.76,North,352,6.0,13.0,41,0.00,,,-99.99,FreeWX 2.04,2013-02-19 10:02:00,
2013-02-19 05:12:00,43.9,21.7,29.76,NNW,348,6.0,14.8,41,0.00,,,-99.99,FreeWX 2.04,2013-02-19 10:12:00,
2013-02-19 05:22:00,44.1,21.9,29.76,North,352,6.0,15.2,41,0.00,,,-99.99,FreeWX 2.04,2013-02-19 10:22:00,
2013-02-19 05:32:00,44.1,21.9,29.76,North,354,6.0,14.8,41,0.00,,,-99.99,FreeWX 2.04,2013-02-19 10:32:00,
2013-02-19 05:42:00,44.1,21.9,29.76,North,359,7.0,16.8,41,0.00,,,-99.99,FreeWX 2.04,2013-02-19 10:42:00,
2013-02-19 05:57:00,44.1,21.9,29.76,North,353,6.0,15.4,41,0.00,,,-99.99,FreeWX 2.04,2013-02-19 10:57:00,
2013-02-19 06:07:00,43.9,22.3,29.76,North,350,7.0,19.0,42,0.00,,,-99.99,FreeWX 2.04,2013-02-19 11:07:00,
2013-02-19 06:27:00,44.1,21.9,29.76,NNE,15,5.0,15.2,41,0.00,,,-99.99,FreeWX 2.04,2013-02-19 11:27:00,
2013-02-19 06:37:00,43.9,23.4,29.76,NNE,24,6.0,15.4,44,0.00,,,-99.99,FreeWX 2.04,2013-02-19 11:37:00,
2013-02-19 06:47:00,43.5,24.1,29.76,NNE,13,5.0,13.9,46,0.00,,,-99.99,FreeWX 2.04,2013-02-19 11:47:00,
2013-02-19 06:57:00,43.2,25.3,29.76,NNE,13,5.0,12.5,49,0.00,,,-99.99,FreeWX 2.04,2013-02-19 11:57:00,
2013-02-19 07:07:00,43.0,25.7,29.76,North,9,5.0,11.6,50,0.00,,,-99.99,FreeWX 2.04,2013-02-19 12:07:00,
2013-02-19 07:17:00,43.0,25.7,29.76,North,1,5.0,10.5,50,0.00,,,-99.99,FreeWX 2.04,2013-02-19 12:17:00,
2013-02-19 07:27:00,43.0,25.7,29.76,NNE,12,5.0,9.2,50,0.00,,,-99.99,FreeWX 2.04,2013-02-19 12:27:00,
2013-02-19 07:37:00,43.0,25.7,29.79,NNE,21,3.0,9.6,50,0.00,,,-99.99,FreeWX 2.04,2013-02-19 12:37:00,
2013-02-19 07:47:00,43.0,25.7,29.79,North,350,4.0,12.1,50,0.00,,,-99.99,FreeWX 2.04,2013-02-19 12:47:00,
2013-02-19 07:57:00,42.8,25.5,29.79,North,5,5.0,10.5,50,0.00,,,-99.99,FreeWX 2.04,2013-02-19 12:57:00,
2013-02-19 08:07:00,43.0,26.1,29.79,NNE,30,5.0,11.6,51,0.00,,,-99.99,FreeWX 2.04,2013-02-19 13:07:00,
2013-02-19 08:17:00,42.8,25.9,29.79,North,0,4.0,9.6,51,0.00,,,-99.99,FreeWX 2.04,2013-02-19 13:17:00,
2013-02-19 08:27:00,42.6,26.8,29.79,NNE,22,4.0,9.6,53,0.00,,,-99.99,FreeWX 2.04,2013-02-19 13:27:00,
2013-02-19 08:37:00,42.4,27.5,29.79,ENE,65,5.0,16.3,55,0.00,,,-99.99,FreeWX 2.04,2013-02-19 13:37:00,
2013-02-19 08:47:00,42.3,27.7,29.82,East,83,5.0,12.5,56,0.00,,,-99.99,FreeWX 2.04,2013-02-19 13:47:00,
2013-02-19 08:57:00,40.1,23.9,29.82,ESE,104,6.0,12.5,52,0.04,,,-99.99,FreeWX 2.04,2013-02-19 13:57:00,
2013-02-19 09:07:00,38.7,22.6,29.82,East,98,5.0,14.3,52,0.04,,,-99.99,FreeWX 2.04,2013-02-19 14:07:00,
2013-02-19 09:22:00,37.9,22.8,29.85,ESE,111,4.0,11.2,54,0.04,,,-99.99,FreeWX 2.04,2013-02-19 14:22:00,
2013-02-19 09:32:00,37.9,23.7,29.85,NE,44,3.0,8.7,56,0.04,,,-99.99,FreeWX 2.04,2013-02-19 14:32:00,
2013-02-19 09:47:00,37.8,23.9,29.85,East,90,4.0,11.0,57,0.04,,,-99.99,FreeWX 2.04,2013-02-19 14:47:00,
2013-02-19 09:57:00,38.1,24.6,29.85,NNE,33,3.0,7.8,58,0.00,,,-99.99,FreeWX 2.04,2013-02-19 14:57:00,
2013-02-19 10:12:00,39.2,26.1,29.85,East,86,4.0,11.2,59,0.00,,,-99.99,FreeWX 2.04,2013-02-19 15:12:00,
2013-02-19 10:22:00,39.4,25.5,29.85,East,100,5.0,13.0,57,0.00,,,-99.99,FreeWX 2.04,2013-02-19 15:22:00,
2013-02-19 10:32:00,39.7,24.4,29.85,East,92,4.0,11.6,54,0.00,,,-99.99,FreeWX 2.04,2013-02-19 15:32:00,
2013-02-19 10:47:00,39.7,20.7,29.85,ENE,64,5.0,13.0,46,0.00,,,-99.99,FreeWX 2.04,2013-02-19 15:47:00,
2013-02-19 10:57:00,40.3,20.1,29.85,ENE,75,5.0,12.5,44,0.00,,,-99.99,FreeWX 2.04,2013-02-19 15:57:00,
2013-02-19 11:12:00,44.4,20.5,29.85,ENE,75,6.0,14.3,38,0.00,,,-99.99,FreeWX 2.04,2013-02-19 16:12:00,
2013-02-19 11:22:00,43.7,15.8,29.85,ENE,75,6.0,15.2,32,0.00,,,-99.99,FreeWX 2.04,2013-02-19 16:22:00,
2013-02-19 11:32:00,42.4,16.7,29.85,ENE,63,5.0,12.5,35,0.00,,,-99.99,FreeWX 2.04,2013-02-19 16:32:00,
2013-02-19 11:42:00,41.7,16.7,29.85,East,85,5.0,11.0,36,0.00,,,-99.99,FreeWX 2.04,2013-02-19 16:42:00,
2013-02-19 11:52:00,40.8,17.2,29.85,East,89,4.0,10.1,38,0.00,,,-99.99,FreeWX 2.04,2013-02-19 16:52:00,
2013-02-19 12:02:00,40.1,16.5,29.88,East,98,4.0,13.9,38,0.00,,,-99.99,FreeWX 2.04,2013-02-19 17:02:00,
2013-02-19 12:12:00,40.1,14.7,29.88,East,100,5.0,13.0,35,0.00,,,-99.99,FreeWX 2.04,2013-02-19 17:12:00,
2013-02-19 12:22:00,41.4,13.8,29.88,East,97,5.0,15.4,32,0.00,,,-99.99,FreeWX 2.04,2013-02-19 17:22:00,
2013-02-19 12:32:00,44.8,15.3,29.88,East,95,5.0,13.9,30,0.00,,,-99.99,FreeWX 2.04,2013-02-19 17:32:00,
2013-02-19 12:42:00,42.6,12.6,29.88,East,84,6.0,14.3,29,0.00,,,-99.99,FreeWX 2.04,2013-02-19 17:42:00,
2013-02-19 12:52:00,41.9,12.7,29.88,East,85,5.0,13.0,30,0.00,,,-99.99,FreeWX 2.04,2013-02-19 17:52:00,
2013-02-19 13:02:00,42.1,12.2,29.88,East,83,7.0,14.8,29,0.00,,,-99.99,FreeWX 2.04,2013-02-19 18:02:00,
2013-02-19 13:12:00,43.5,12.6,29.88,ENE,72,6.0,12.5,28,0.00,,,-99.99,FreeWX 2.04,2013-02-19 18:12:00,
2013-02-19 13:22:00,44.8,12.9,29.88,East,96,6.0,15.4,27,0.00,,,-99.99,FreeWX 2.04,2013-02-19 18:22:00,
2013-02-19 13:32:00,45.5,10.8,29.88,East,86,8.0,16.8,24,0.00,,,-99.99,FreeWX 2.04,2013-02-19 18:32:00,
2013-02-19 13:42:00,46.2,9.5,29.88,ENE,62,7.0,15.2,22,0.00,,,-99.99,FreeWX 2.04,2013-02-19 18:42:00,
2013-02-19 13:52:00,46.9,10.0,29.88,ENE,78,9.0,16.3,22,0.00,,,-99.99,FreeWX 2.04,2013-02-19 18:52:00,
2013-02-19 14:02:00,47.1,10.2,29.88,East,97,7.0,15.2,22,0.00,,,-99.99,FreeWX 2.04,2013-02-19 19:02:00,
2013-02-19 14:12:00,47.1,10.2,29.88,East,87,6.0,16.3,22,0.00,,,-99.99,FreeWX 2.04,2013-02-19 19:12:00,
2013-02-19 14:22:00,44.8,8.2,29.88,ESE,108,6.0,14.8,22,0.00,,,-99.99,FreeWX 2.04,2013-02-19 19:22:00,
2013-02-19 14:32:00,43.9,7.5,29.88,East,94,5.0,11.0,22,0.00,,,-99.99,FreeWX 2.04,2013-02-19 19:32:00,
2013-02-19 14:42:00,45.5,9.0,29.88,ENE,75,5.0,11.2,22,0.00,,,-99.99,FreeWX 2.04,2013-02-19 19:42:00,
2013-02-19 14:52:00,44.4,8.1,29.88,East,90,5.0,10.1,22,0.00,,,-99.99,FreeWX 2.04,2013-02-19 19:52:00,
2013-02-19 15:02:00,43.5,8.2,29.88,East,86,7.0,14.3,23,0.00,,,-99.99,FreeWX 2.04,2013-02-19 20:02:00,
2013-02-19 15:12:00,43.5,8.2,29.88,East,81,7.0,21.5,23,0.00,,,-99.99,FreeWX 2.04,2013-02-19 20:12:00,
2013-02-19 15:22:00,42.4,7.3,29.88,East,92,7.0,12.5,23,0.00,,,-99.99,FreeWX 2.04,2013-02-19 20:22:00,
2013-02-19 15:32:00,42.8,7.5,29.91,East,87,6.0,20.6,23,0.00,,,-99.99,FreeWX 2.04,2013-02-19 20:32:00,
2013-02-19 15:42:00,42.8,7.5,29.91,ENE,73,4.0,10.5,23,0.00,,,-99.99,FreeWX 2.04,2013-02-19 20:42:00,
2013-02-19 15:52:00,43.3,8.1,29.91,ESE,102,4.0,10.1,23,0.00,,,-99.99,FreeWX 2.04,2013-02-19 20:52:00,
2013-02-19 16:02:00,43.5,8.2,29.91,East,87,6.0,15.2,23,0.00,,,-99.99,FreeWX 2.04,2013-02-19 21:02:00,
2013-02-19 16:12:00,43.2,7.9,29.91,East,89,7.0,14.3,23,0.00,,,-99.99,FreeWX 2.04,2013-02-19 21:12:00,
2013-02-19 16:22:00,42.3,7.2,29.91,East,82,6.0,12.5,23,0.00,,,-99.99,FreeWX 2.04,2013-02-19 21:22:00,
2013-02-19 16:32:00,41.9,6.8,29.91,ESE,108,3.0,9.2,23,0.00,,,-99.99,FreeWX 2.04,2013-02-19 21:32:00,
2013-02-19 16:42:00,41.0,6.1,29.91,East,95,6.0,14.8,23,0.00,,,-99.99,FreeWX 2.04,2013-02-19 21:42:00,
2013-02-19 16:52:00,40.6,5.7,29.91,East,96,6.0,16.3,23,0.00,,,-99.99,FreeWX 2.04,2013-02-19 21:52:00,
2013-02-19 17:02:00,40.5,5.5,29.94,East,88,5.0,13.0,23,0.00,,,-99.99,FreeWX 2.04,2013-02-19 22:02:00,
2013-02-19 17:12:00,39.9,5.2,29.94,East,82,5.0,14.3,23,0.00,,,-99.99,FreeWX 2.04,2013-02-19 22:12:00,
2013-02-19 17:23:00,39.4,2.7,29.94,East,87,5.0,11.2,21,0.00,,,-99.99,FreeWX 2.04,2013-02-19 22:23:00,
2013-02-19 17:33:00,38.7,2.1,29.94,ESE,112,4.0,10.5,21,0.00,,,-99.99,FreeWX 2.04,2013-02-19 22:33:00,
2013-02-19 17:43:00,38.5,1.9,29.94,East,90,5.0,10.5,21,0.00,,,-99.99,FreeWX 2.04,2013-02-19 22:43:00,
2013-02-19 17:53:00,37.9,1.6,29.94,ESE,108,4.0,12.1,21,0.00,,,-99.99,FreeWX 2.04,2013-02-19 22:53:00,
2013-02-19 18:03:00,37.6,1.2,29.97,East,99,6.0,15.2,21,0.00,,,-99.99,FreeWX 2.04,2013-02-19 23:03:00,
2013-02-19 18:13:00,37.2,0.9,29.97,East,98,6.0,16.8,21,0.00,,,-99.99,FreeWX 2.04,2013-02-19 23:13:00,
2013-02-19 18:23:00,36.9,0.7,29.97,ESE,112,4.0,8.3,21,0.00,,,-99.99,FreeWX 2.04,2013-02-19 23:23:00,
2013-02-19 18:33:00,36.5,1.4,29.97,ESE,110,5.0,11.0,22,0.00,,,-99.99,FreeWX 2.04,2013-02-19 23:33:00,
2013-02-19 18:43:00,36.1,1.0,29.97,ESE,102,4.0,12.1,22,0.00,,,-99.99,FreeWX 2.04,2013-02-19 23:43:00,
2013-02-19 18:53:00,35.8,0.7,29.97,East,90,5.0,11.0,22,0.00,,,-99.99,FreeWX 2.04,2013-02-19 23:53:00,
2013-02-19 19:03:00,35.6,0.5,30.00,East,79,4.0,7.4,22,0.00,,,-99.99,FreeWX 2.04,2013-02-20 00:03:00,
2013-02-19 19:13:00,35.4,2.3,30.00,East,98,3.0,8.3,24,0.00,,,-99.99,FreeWX 2.04,2013-02-20 00:13:00,
2013-02-19 19:23:00,35.1,1.9,30.00,East,93,4.0,9.2,24,0.00,,,-99.99,FreeWX 2.04,2013-02-20 00:23:00,
2013-02-19 19:33:00,34.9,1.8,30.00,East,80,4.0,11.0,24,0.00,,,-99.99,FreeWX 2.04,2013-02-20 00:33:00,
2013-02-19 19:43:00,34.5,2.3,30.00,ENE,78,4.0,9.2,25,0.00,,,-99.99,FreeWX 2.04,2013-02-20 00:43:00,
2013-02-19 19:53:00,34.5,2.3,30.00,East,99,4.0,9.2,25,0.00,,,-99.99,FreeWX 2.04,2013-02-20 00:53:00,
2013-02-19 20:03:00,34.2,2.1,30.00,ENE,78,4.0,10.1,25,0.00,,,-99.99,FreeWX 2.04,2013-02-20 01:03:00,
2013-02-19 20:13:00,34.0,1.9,30.00,ESE,106,5.0,11.0,25,0.00,,,-99.99,FreeWX 2.04,2013-02-20 01:13:00,
2013-02-19 20:23:00,33.8,1.8,30.00,East,82,4.0,9.2,25,0.00,,,-99.99,FreeWX 2.04,2013-02-20 01:23:00,
2013-02-19 20:33:00,33.4,1.4,30.03,ENE,76,4.0,8.7,25,0.00,,,-99.99,FreeWX 2.04,2013-02-20 01:33:00,
2013-02-19 20:43:00,33.3,1.2,30.03,ESE,108,3.0,8.3,25,0.00,,,-99.99,FreeWX 2.04,2013-02-20 01:43:00,
2013-02-19 20:53:00,32.9,1.0,30.03,East,83,3.0,9.2,25,0.00,,,-99.99,FreeWX 2.04,2013-02-20 01:53:00,
2013-02-19 21:03:00,32.7,0.9,30.03,ESE,102,5.0,10.5,25,0.00,,,-99.99,FreeWX 2.04,2013-02-20 02:03:00,
2013-02-19 21:13:00,32.5,0.7,30.03,ESE,112,4.0,11.6,25,0.00,,,-99.99,FreeWX 2.04,2013-02-20 02:13:00,
2013-02-19 21:23:00,32.0,0.1,30.03,East,100,4.0,8.3,25,0.00,,,-99.99,FreeWX 2.04,2013-02-20 02:23:00,
2013-02-19 21:33:00,31.5,-0.2,30.06,ESE,106,2.0,8.7,25,0.00,,,-99.99,FreeWX 2.04,2013-02-20 02:33:00,
2013-02-19 21:43:00,31.3,-0.4,30.06,East,86,3.0,8.3,25,0.00,,,-99.99,FreeWX 2.04,2013-02-20 02:43:00,
2013-02-19 21:53:00,31.1,-0.6,30.06,ESE,113,3.0,7.4,25,0.00,,,-99.99,FreeWX 2.04,2013-02-20 02:53:00,
2013-02-19 22:03:00,30.6,-0.9,30.06,ESE,120,3.0,7.8,25,0.00,,,-99.99,FreeWX 2.04,2013-02-20 03:03:00,
2013-02-19 22:13:00,30.2,1.0,30.06,East,79,4.0,11.2,28,0.00,,,-99.99,FreeWX 2.04,2013-02-20 03:13:00,
2013-02-19 22:23:00,29.8,0.7,30.06,ESE,111,4.0,6.9,28,0.00,,,-99.99,FreeWX 2.04,2013-02-20 03:23:00,
2013-02-19 22:33:00,29.5,0.5,30.06,East,90,3.0,6.3,28,0.00,,,-99.99,FreeWX 2.04,2013-02-20 03:33:00,
2013-02-19 22:43:00,29.1,0.1,30.06,ENE,72,1.0,5.4,28,0.00,,,-99.99,FreeWX 2.04,2013-02-20 03:43:00,
2013-02-19 22:53:00,29.1,2.3,30.06,ENE,78,4.0,10.1,31,0.00,,,-99.99,FreeWX 2.04,2013-02-20 03:53:00,
2013-02-19 23:03:00,28.9,2.1,30.06,ENE,77,4.0,8.7,31,0.00,,,-99.99,FreeWX 2.04,2013-02-20 04:03:00,
2013-02-19 23:13:00,28.8,1.9,30.06,East,86,4.0,7.8,31,0.00,,,-99.99,FreeWX 2.04,2013-02-20 04:13:00,
2013-02-19 23:23:00,28.6,1.8,30.06,NE,49,2.0,5.8,31,0.00,,,-99.99,FreeWX 2.04,2013-02-20 04:23:00,
2013-02-19 23:33:00,28.2,1.6,30.06,ENE,69,3.0,8.3,31,0.00,,,-99.99,FreeWX 2.04,2013-02-20 04:33:00,
2013-02-19 23:43:00,28.2,1.6,30.06,ENE,76,3.0,8.7,31,0.00,,,-99.99,FreeWX 2.04,2013-02-20 04:43:00,
2013-02-19 23:53:00,28.0,1.4,30.09,East,84,3.0,6.7,31,0.00,,,-99.99,FreeWX 2.04,2013-02-20 04:53:00,